createdAt,value
2022-10-19T00:03:37.100Z,7.20
2022-10-19T00:08:44.937Z,7.15
2022-10-19T00:14:04.103Z,6.80
2022-10-19T00:19:14.201Z,7.10
2022-10-19T00:24:28.580Z,7.45
2022-10-19T00:29:33.122Z,7.40
2022-10-19T00:34:36.591Z,6.47
2022-10-19T00:39:43.606Z,7.50
2022-10-19T00:44:57.374Z,7.57
2022-10-19T00:50:00.541Z,7.93
2022-10-19T00:55:04.071Z,9.68
2022-10-19T01:00:09.399Z,8.35
2022-10-19T01:05:13.448Z,9.25
2022-10-19T01:10:17.222Z,7.68
2022-10-19T01:15:48.427Z,8.38
2022-10-19T01:21:03.318Z,9.35
2022-10-19T01:26:27.433Z,9.35
2022-10-19T01:32:08.531Z,8.35
2022-10-19T01:37:37.979Z,8.75
2022-10-19T01:43:12.812Z,8.32
2022-10-19T01:48:41.508Z,9.20
2022-10-19T01:53:51.190Z,8.55
2022-10-19T01:58:59.165Z,9.47
2022-10-19T02:04:05.910Z,8.35
2022-10-19T02:09:18.215Z,8.02
2022-10-19T02:14:27.433Z,7.68
2022-10-19T02:24:35.738Z,7.82
2022-10-19T02:29:39.857Z,7.97
2022-10-19T02:34:42.581Z,7.93
2022-10-19T02:39:45.097Z,7.80
2022-10-19T02:45:18.239Z,6.80
2022-10-19T02:50:25.800Z,7.05
2022-10-19T02:55:30.146Z,8.48
2022-10-19T03:00:32.668Z,8.80
2022-10-19T03:05:35.341Z,7.53
2022-10-19T03:10:37.573Z,9.77
2022-10-19T03:15:39.832Z,7.90
2022-10-19T03:20:42.373Z,8.00
2022-10-19T03:25:47.366Z,9.35
2022-10-19T03:30:56.344Z,8.20
2022-10-19T03:36:20.813Z,9.55
2022-10-19T03:41:27.435Z,10.35
2022-10-19T03:46:32.455Z,7.78
2022-10-19T03:51:36.053Z,8.77
2022-10-19T03:56:38.470Z,9.05
2022-10-19T04:01:43.611Z,7.47
2022-10-19T04:06:48.420Z,8.52
2022-10-19T04:11:53.306Z,8.95
2022-10-19T04:16:57.468Z,8.50
2022-10-19T04:22:07.252Z,7.90
2022-10-19T04:27:32.070Z,6.28
2022-10-19T04:38:00.992Z,6.50
2022-10-19T04:43:09.225Z,8.13
2022-10-19T04:48:15.764Z,8.48
2022-10-19T04:53:19.488Z,9.38
2022-10-19T04:58:25.163Z,6.40
2022-10-19T05:03:27.319Z,7.65
2022-10-19T05:08:32.219Z,7.15
2022-10-19T05:13:44.273Z,6.47
2022-10-19T05:18:59.055Z,6.97
2022-10-19T05:24:05.520Z,8.23
2022-10-19T05:29:33.078Z,8.00
2022-10-19T05:34:35.824Z,7.15
2022-10-19T05:40:26.102Z,9.80
2022-10-19T05:45:43.395Z,6.90
2022-10-19T05:51:08.034Z,7.50
2022-10-19T06:02:09.491Z,7.05
2022-10-19T06:07:28.510Z,6.78
2022-10-19T06:12:35.764Z,7.32
2022-10-19T06:17:39.474Z,8.75
2022-10-19T06:22:50.260Z,8.55
2022-10-19T06:33:40.949Z,6.20
2022-10-19T06:39:08.863Z,6.75
2022-10-19T06:44:13.385Z,8.82
2022-10-19T06:49:21.157Z,7.95
2022-10-19T06:54:35.378Z,7.82
2022-10-19T07:05:59.441Z,7.60
2022-10-19T07:24:21.463Z,7.05
2022-10-19T07:29:45.996Z,6.95
2022-10-19T07:36:00.058Z,6.88
2022-10-19T07:54:31.931Z,5.97
2022-10-19T08:13:31.231Z,5.78
2022-10-19T08:18:37.095Z,5.05
2022-10-19T08:23:50.805Z,5.70
2022-10-19T08:29:12.849Z,5.32
2022-10-19T08:34:16.847Z,4.68
2022-10-19T08:39:54.677Z,5.78
2022-10-19T08:50:48.932Z,5.22
2022-10-19T08:56:57.789Z,5.22
2022-10-19T09:02:44.278Z,5.03
2022-10-19T09:08:20.351Z,4.97
2022-10-19T09:14:06.379Z,4.43
2022-10-19T09:19:43.025Z,6.18
2022-10-19T09:25:08.452Z,4.57
2022-10-19T09:30:32.966Z,5.00
2022-10-19T09:35:57.444Z,5.40
2022-10-19T09:41:33.678Z,3.72
2022-10-19T09:47:18.566Z,4.38
2022-10-19T09:58:39.575Z,4.25
2022-10-19T10:04:24.864Z,4.68
2022-10-19T10:10:25.529Z,4.93
2022-10-19T10:15:56.481Z,5.80
2022-10-19T10:21:28.834Z,4.13
2022-10-19T10:26:49.988Z,5.18
2022-10-19T10:32:19.794Z,4.88
2022-10-19T10:37:29.746Z,4.38
2022-10-19T10:42:45.788Z,4.03
2022-10-19T10:47:53.346Z,4.28
2022-10-19T10:53:39.939Z,5.15
2022-10-19T10:59:00.865Z,3.22
2022-10-19T11:04:19.661Z,5.18
2022-10-19T11:09:31.366Z,3.15
2022-10-19T11:14:42.225Z,3.63
2022-10-19T11:20:01.680Z,3.75
2022-10-19T11:26:01.397Z,4.15
2022-10-19T11:31:38.873Z,4.57
2022-10-19T11:37:28.780Z,4.13
2022-10-19T11:42:56.312Z,4.20
2022-10-19T11:48:54.963Z,3.90
2022-10-19T11:54:41.768Z,5.05
2022-10-19T12:29:12.027Z,3.33
2022-10-19T12:51:50.296Z,3.42
2022-10-19T13:03:15.422Z,3.33
2022-10-19T13:08:52.525Z,3.22
2022-10-19T13:14:28.827Z,3.80
2022-10-19T13:25:48.747Z,4.80
2022-10-19T13:38:03.913Z,3.70
2022-10-19T13:44:43.684Z,3.92
2022-10-19T14:10:01.029Z,4.05
2022-10-19T14:16:08.684Z,4.53
2022-10-19T14:22:30.358Z,5.68
2022-10-19T14:28:25.231Z,3.83
2022-10-19T14:33:36.651Z,6.38
2022-10-19T14:38:53.190Z,4.28
2022-10-19T14:45:14.487Z,5.70
2022-10-19T14:50:30.711Z,4.35
2022-10-19T15:07:40.032Z,4.85
2022-10-19T15:13:11.502Z,5.45
2022-10-19T15:18:44.067Z,4.78
2022-10-19T15:30:22.422Z,5.43
2022-10-19T15:35:34.364Z,5.88
2022-10-19T15:40:47.260Z,5.75
2022-10-19T15:46:44.085Z,6.13
2022-10-19T15:53:03.960Z,5.25
2022-10-19T15:58:15.857Z,4.47
2022-10-19T16:03:30.702Z,4.22
2022-10-19T16:08:44.751Z,3.50
2022-10-19T16:19:37.876Z,3.95
2022-10-19T16:25:06.353Z,5.03
2022-10-19T16:31:07.582Z,3.92
2022-10-19T16:43:20.828Z,3.92
2022-10-19T16:55:20.362Z,3.42
2022-10-19T17:00:58.324Z,2.92
2022-10-19T17:12:02.875Z,11.23
2022-10-19T17:17:10.791Z,6.00
2022-10-19T17:28:10.377Z,3.92
2022-10-19T17:44:21.653Z,2.65
2022-10-19T17:49:30.742Z,2.17
2022-10-19T17:54:48.877Z,1.77
2022-10-19T18:00:16.895Z,2.50
2022-10-19T18:05:40.633Z,2.30
2022-10-19T18:10:43.827Z,2.10
2022-10-19T18:16:33.490Z,1.80
2022-10-19T18:21:44.938Z,3.03
2022-10-19T18:26:51.722Z,1.95
2022-10-19T18:31:57.570Z,2.50
2022-10-19T18:37:25.887Z,1.90
2022-10-19T18:47:57.602Z,2.33
2022-10-19T18:53:10.032Z,1.45
2022-10-19T18:58:16.103Z,1.13
2022-10-19T19:03:23.086Z,2.00
2022-10-19T19:08:26.954Z,2.72
2022-10-19T19:13:46.509Z,5.35
2022-10-19T19:18:49.755Z,4.32
2022-10-19T19:23:55.845Z,5.10
2022-10-19T19:28:59.347Z,4.00
2022-10-19T19:34:07.405Z,4.07
2022-10-19T19:39:09.530Z,2.40
2022-10-19T19:44:26.026Z,2.85
2022-10-19T19:49:35.083Z,2.28
2022-10-19T19:54:41.378Z,1.95
2022-10-19T19:59:46.490Z,2.40
2022-10-19T20:04:54.170Z,2.55
2022-10-19T20:09:57.791Z,3.05
2022-10-19T20:15:01.735Z,3.03
2022-10-19T20:20:06.553Z,1.15
2022-10-19T20:25:16.654Z,2.50
2022-10-19T20:30:31.780Z,1.75
2022-10-19T20:35:38.171Z,1.30
2022-10-19T20:40:41.830Z,1.52
2022-10-19T20:45:45.345Z,1.50
2022-10-19T20:50:49.824Z,1.23
2022-10-19T20:56:12.100Z,1.42
2022-10-19T21:01:23.121Z,1.00
2022-10-19T21:06:27.905Z,3.60
2022-10-19T21:12:12.223Z,2.97
2022-10-19T21:17:14.746Z,1.67
2022-10-19T21:22:18.780Z,1.33
2022-10-19T21:27:23.841Z,1.83
2022-10-19T21:32:28.650Z,0.95
2022-10-19T21:37:33.711Z,1.27
2022-10-19T21:47:59.703Z,0.85
2022-10-19T21:53:04.896Z,1.13
2022-10-19T21:58:07.495Z,2.00
2022-10-19T22:03:22.660Z,1.38
2022-10-19T22:08:25.628Z,1.55
2022-10-19T22:13:39.986Z,1.20
2022-10-19T22:18:45.875Z,1.52
2022-10-19T22:23:58.049Z,2.78
2022-10-19T22:29:02.445Z,2.10
2022-10-19T22:34:22.959Z,2.22
2022-10-19T22:39:27.745Z,0.90
2022-10-19T22:44:32.262Z,2.38
2022-10-19T22:49:35.507Z,1.67
2022-10-19T22:54:41.193Z,1.33
2022-10-19T22:59:49.066Z,0.93
2022-10-19T23:04:51.196Z,1.00
2022-10-19T23:09:56.918Z,0.85
2022-10-19T23:15:06.185Z,0.80
2022-10-19T23:20:16.397Z,0.70
2022-10-19T23:25:43.747Z,0.63
2022-10-19T23:30:46.157Z,1.00
2022-10-19T23:36:13.152Z,2.50
2022-10-19T23:41:28.660Z,1.40
2022-10-19T23:46:35.811Z,1.17
2022-10-19T23:51:48.281Z,2.42
2022-10-19T23:57:08.773Z,1.52
